Terminal Aerodrome Forecast
Issued by NWS

Home | Current Version | Previous Version | Graphics & Text | Print | Product List | Glossary On
Versions: 1 2 3 4 5 6 7 8 9 10 11 12 13 14 15
000
FTUS43 KBIS 181100
TAFJMS
TAF
KJMS 181129Z 1812/1912 12011KT P6SM BKN080 BKN110
     FM181500 12019G24KT P6SM BKN120
     FM181800 13027G36KT P6SM SCT040 BKN120
     FM190100 12021G28KT P6SM VCSH SCT040 BKN060 OVC120
     FM190900 26008KT P6SM SCT020 SCT140=

USA.gov is the U.S. government's official web portal to all federal, state and local government web resources and services.